Time;durP1;ratioP1;P1;durP2;ratioP2;P2;SDS_P1;SDS_P2;PMS_P1;PMS_P2;Temp;Humidity;BMP_temperature;BMP_pressure;BME280_temperature;BME280_humidity;BME280_pressure;Samples;Min_cycle;Max_cycle;Signal;HPM_P1;HPM_P2
2022/10/07 00:01:01;;;;;;;9.80;6.70;;;;;;;10.28;90.61;99924.30;102515;1292;137909;-71
2022/10/07 00:03:33;;;;;;;11.20;7.20;;;;;;;10.24;90.74;99920.41;102770;1298;22113;-72
2022/10/07 00:06:03;;;;;;;15.20;7.70;;;;;;;10.21;90.46;99924.55;102633;1313;138127;-72
2022/10/07 00:08:31;;;;;;;10.60;7.00;;;;;;;10.18;90.26;99924.59;102715;1306;24338;-73
2022/10/07 00:11:06;;;;;;;12.00;6.80;;;;;;;10.15;90.82;99919.01;102654;1298;22481;-70
2022/10/07 00:13:35;;;;;;;13.20;8.50;;;;;;;10.12;90.68;99921.27;102472;1314;137866;-71
2022/10/07 00:16:05;;;;;;;12.40;8.70;;;;;;;10.09;91.08;99919.70;102605;1313;24041;-72
2022/10/07 00:18:34;;;;;;;17.10;9.30;;;;;;;10.08;91.28;99915.22;102457;1298;137835;-72
2022/10/07 00:21:06;;;;;;;16.30;9.50;;;;;;;10.06;91.44;99916.77;102713;1304;22487;-71
2022/10/07 00:23:34;;;;;;;12.60;8.60;;;;;;;10.03;91.37;99914.20;102759;1288;22474;-72
2022/10/07 00:26:08;;;;;;;17.70;8.90;;;;;;;10.01;91.58;99911.80;102761;1313;22488;-72
2022/10/07 00:28:38;;;;;;;11.90;8.00;;;;;;;9.98;91.94;99914.57;102856;1298;25474;-72
2022/10/07 00:31:08;;;;;;;13.80;8.10;;;;;;;9.95;91.75;99909.86;102533;1299;137902;-72
2022/10/07 00:33:40;;;;;;;12.40;7.70;;;;;;;9.92;91.53;99912.41;102559;1313;22687;-72
2022/10/07 00:36:31;;;;;;;12.60;7.30;;;;;;;9.88;91.81;99914.71;102346;1310;138123;-70
2022/10/07 00:39:07;;;;;;;13.80;7.70;;;;;;;9.84;91.79;99909.13;102499;1314;24445;-72
2022/10/07 00:41:39;;;;;;;10.20;7.50;;;;;;;9.81;91.84;99911.67;104101;1291;22497;-72
2022/10/07 00:44:28;;;;;;;14.90;7.80;;;;;;;9.79;91.91;99907.30;102863;1289;24280;-72
2022/10/07 00:46:58;;;;;;;14.40;7.00;;;;;;;9.75;91.87;99901.40;102620;1313;23479;-72
2022/10/07 00:49:29;;;;;;;13.50;6.70;;;;;;;9.73;91.72;99902.43;102489;1314;138238;-72
2022/10/07 00:51:57;;;;;;;11.40;7.20;;;;;;;9.70;91.81;99897.91;102767;1313;22478;-71
2022/10/07 00:54:24;;;;;;;11.00;7.10;;;;;;;9.67;92.21;99897.17;102482;1313;137728;-72
2022/10/07 00:56:51;;;;;;;10.40;7.30;;;;;;;9.65;92.47;99890.39;102509;1315;24005;-71
2022/10/07 00:59:19;;;;;;;11.10;7.10;;;;;;;9.63;92.53;99892.61;102527;1289;25213;-72
2022/10/07 01:01:46;;;;;;;12.50;7.60;;;;;;;9.61;92.66;99890.16;102872;1291;137739;-71
2022/10/07 01:04:14;;;;;;;13.20;7.30;;;;;;;9.60;92.80;99891.96;102971;1313;24588;-72
2022/10/07 01:06:41;;;;;;;11.40;7.10;;;;;;;9.58;92.79;99887.57;102802;1313;137654;-72
2022/10/07 01:09:10;;;;;;;11.70;7.10;;;;;;;9.57;93.10;99888.82;102895;1291;22488;-71
2022/10/07 01:11:58;;;;;;;11.80;7.30;;;;;;;9.55;93.15;99885.63;102919;1287;137907;-71
2022/10/07 01:15:02;;;;;;;11.30;6.20;;;;;;;9.53;93.26;99881.15;102607;1307;24407;-72
2022/10/07 01:17:52;;;;;;;12.50;7.10;;;;;;;9.50;93.20;99877.19;102140;1319;24036;-71
2022/10/07 01:20:30;;;;;;;11.90;6.30;;;;;;;9.47;93.51;99875.85;102454;1310;23135;-71
2022/10/07 01:23:19;;;;;;;9.20;6.30;;;;;;;9.46;93.39;99876.50;102416;1316;23380;-71
2022/10/07 01:26:08;;;;;;;10.20;6.20;;;;;;;9.42;93.34;99868.02;102316;1303;137555;-71
2022/10/07 01:28:51;;;;;;;10.90;6.50;;;;;;;9.39;93.15;99873.89;102430;1317;25081;-72
2022/10/07 01:31:22;;;;;;;9.80;5.90;;;;;;;9.36;93.14;99873.25;102402;1295;138196;-72
2022/10/07 01:33:52;;;;;;;9.70;5.80;;;;;;;9.33;92.77;99871.52;102402;1303;25530;-71
2022/10/07 01:36:22;;;;;;;9.20;5.80;;;;;;;9.29;92.94;99865.18;102308;1317;137896;-71
2022/10/07 01:38:58;;;;;;;8.30;5.60;;;;;;;9.26;93.09;99866.34;102214;1301;24282;-71
2022/10/07 01:41:25;;;;;;;8.60;5.20;;;;;;;9.24;92.95;99864.50;102263;1317;22966;-72
2022/10/07 01:43:53;;;;;;;13.10;5.70;;;;;;;9.21;93.04;99861.59;102476;1310;137707;-72
2022/10/07 01:46:23;;;;;;;8.60;5.20;;;;;;;9.18;93.04;99854.09;102392;1310;22486;-71
2022/10/07 01:48:50;;;;;;;8.40;5.00;;;;;;;9.14;93.07;99852.90;102392;1309;137665;-71
2022/10/07 01:51:22;;;;;;;8.20;4.70;;;;;;;9.11;93.08;99852.75;102563;1306;22614;-71
2022/10/07 01:54:01;;;;;;;6.30;4.60;;;;;;;9.08;93.15;99848.23;102252;1309;137674;-71
2022/10/07 01:56:48;;;;;;;9.20;4.80;;;;;;;9.07;93.12;99849.10;102836;1313;25392;-72
2022/10/07 01:59:22;;;;;;;7.90;4.30;;;;;;;9.04;93.17;99846.04;102907;1298;25509;-76
2022/10/07 02:01:51;;;;;;;6.50;4.50;;;;;;;9.02;93.16;99848.11;102551;1290;137706;-73
2022/10/07 02:04:30;;;;;;;10.00;5.10;;;;;;;9.00;93.08;99846.26;102621;1313;22617;-73
2022/10/07 02:07:23;;;;;;;6.20;4.40;;;;;;;8.97;93.20;99846.06;102470;1315;137839;-73
2022/10/07 02:10:25;;;;;;;6.50;3.90;;;;;;;8.95;93.01;99850.75;102707;1313;22624;-73
2022/10/07 02:13:10;;;;;;;10.00;4.40;;;;;;;8.90;93.08;99850.22;101907;1300;137676;-75
2022/10/07 02:16:14;;;;;;;8.80;4.50;;;;;;;8.86;93.22;99849.27;102069;1319;24353;-77
2022/10/07 02:18:47;;;;;;;9.50;4.50;;;;;;;8.83;93.27;99849.63;102098;1308;137604;-72
2022/10/07 02:21:21;;;;;;;7.10;4.30;;;;;;;8.82;93.29;99849.33;102118;1318;22641;-73
2022/10/07 02:23:48;;;;;;;8.10;4.30;;;;;;;8.79;93.38;99845.34;102017;1318;137866;-72
2022/10/07 02:26:19;;;;;;;8.40;4.20;;;;;;;8.76;93.27;99844.57;102117;1304;22810;-73
2022/10/07 02:28:52;;;;;;;6.00;4.30;;;;;;;8.73;93.24;99845.09;102250;1312;22511;-74
2022/10/07 02:31:24;;;;;;;6.20;4.10;;;;;;;8.72;93.19;99846.25;102024;1299;137788;-74
2022/10/07 02:33:55;;;;;;;8.70;4.70;;;;;;;8.70;93.12;99842.85;102180;1318;22656;-72
2022/10/07 02:36:33;;;;;;;6.60;4.20;;;;;;;8.67;93.15;99840.13;101912;1319;137964;-75
2022/10/07 02:39:01;;;;;;;9.40;5.50;;;;;;;8.66;93.26;99837.65;102124;1304;25281;-73
2022/10/07 02:41:49;;;;;;;8.30;4.70;;;;;;;8.63;93.16;99837.46;102167;1319;22739;-75
2022/10/07 02:44:40;;;;;;;7.10;5.00;;;;;;;8.60;93.34;99834.52;102184;1317;22482;-71
2022/10/07 02:47:16;;;;;;;12.30;4.70;;;;;;;8.58;93.42;99834.96;101993;1319;22475;-73
2022/10/07 02:49:49;;;;;;;6.60;4.40;;;;;;;8.55;93.22;99832.30;102165;1308;137994;-75
2022/10/07 02:52:19;;;;;;;6.40;4.40;;;;;;;8.53;93.40;99831.09;102506;1300;25511;-72
2022/10/07 02:54:59;;;;;;;8.60;4.70;;;;;;;8.51;93.53;99830.60;102440;1313;137581;-74
2022/10/07 02:57:31;;;;;;;9.90;5.00;;;;;;;8.49;93.44;99828.69;102410;1314;22477;-75
2022/10/07 03:00:00;;;;;;;9.80;5.30;;;;;;;8.48;93.61;99827.80;102344;1313;137974;-74
2022/10/07 03:02:44;;;;;;;8.80;4.80;;;;;;;8.45;93.43;99825.23;102318;1315;24260;-73
2022/10/07 03:05:13;;;;;;;7.90;5.60;;;;;;;8.44;93.39;99827.05;102769;1300;22599;-73
2022/10/07 03:07:40;;;;;;;9.90;5.90;;;;;;;8.42;93.68;99826.36;102430;1313;137619;-77
2022/10/07 03:10:08;;;;;;;9.10;5.90;;;;;;;8.40;93.81;99823.11;102450;1313;25396;-72
2022/10/07 03:12:34;;;;;;;9.90;5.80;;;;;;;8.39;94.13;99820.51;102261;1300;137730;-73
2022/10/07 03:15:02;;;;;;;10.30;5.30;;;;;;;8.39;94.08;99819.34;102455;1314;25366;-74
2022/10/07 03:17:29;;;;;;;9.30;5.80;;;;;;;8.37;94.17;99818.07;102415;1315;24301;-74
2022/10/07 03:19:56;;;;;;;7.20;5.70;;;;;;;8.36;94.47;99817.82;102163;1301;137918;-74
2022/10/07 03:22:23;;;;;;;8.60;6.10;;;;;;;8.36;94.19;99821.52;102404;1291;25475;-76
2022/10/07 03:24:50;;;;;;;8.40;5.80;;;;;;;8.35;94.55;99820.95;102346;1313;137801;-72
2022/10/07 03:27:18;;;;;;;8.00;5.80;;;;;;;8.35;94.49;99822.02;102603;1313;22477;-75
2022/10/07 03:29:45;;;;;;;8.70;5.60;;;;;;;8.33;94.64;99822.39;102525;1313;25307;-76
2022/10/07 03:32:14;;;;;;;10.90;6.30;;;;;;;8.33;94.55;99823.17;102431;1314;22517;-74
2022/10/07 03:34:41;;;;;;;10.50;6.50;;;;;;;8.32;94.36;99822.30;102452;1313;22900;-73
2022/10/07 03:37:08;;;;;;;10.90;6.00;;;;;;;8.32;94.56;99818.06;102541;1313;138211;-74
2022/10/07 03:39:35;;;;;;;10.50;5.80;;;;;;;8.30;94.56;99815.67;102670;1290;24409;-75
2022/10/07 03:42:03;;;;;;;9.40;5.90;;;;;;;8.30;94.45;99817.55;102498;1306;137974;-71
2022/10/07 03:44:31;;;;;;;10.50;6.50;;;;;;;8.29;94.46;99816.63;102458;1292;25461;-74
2022/10/07 03:46:58;;;;;;;9.00;6.20;;;;;;;8.27;94.76;99816.85;102424;1315;22559;-73
2022/10/07 03:49:28;;;;;;;8.60;6.50;;;;;;;8.26;94.73;99812.84;102392;1300;137574;-76
2022/10/07 03:51:55;;;;;;;12.70;6.40;;;;;;;8.26;94.65;99810.50;102425;1300;25462;-76
2022/10/07 03:54:22;;;;;;;11.30;6.10;;;;;;;8.24;94.76;99806.52;102424;1292;138267;-73
2022/10/07 03:56:51;;;;;;;11.00;6.90;;;;;;;8.24;94.88;99804.42;102683;1313;22494;-74
2022/10/07 03:59:18;;;;;;;8.30;6.30;;;;;;;8.22;94.66;99803.77;102641;1313;22727;-72
2022/10/07 04:01:45;;;;;;;9.80;6.90;;;;;;;8.21;94.73;99802.41;102612;1313;137545;-72
2022/10/07 04:04:12;;;;;;;10.10;6.20;;;;;;;8.19;94.83;99798.68;102695;1298;23935;-74
2022/10/07 04:06:42;;;;;;;10.80;6.40;;;;;;;8.17;94.94;99793.95;102449;1291;137912;-73
2022/10/07 04:09:13;;;;;;;10.60;6.90;;;;;;;8.16;94.82;99794.11;102560;1306;22478;-72
2022/10/07 04:11:43;;;;;;;12.10;6.70;;;;;;;8.15;94.86;99789.92;102457;1314;22545;-71
2022/10/07 04:14:10;;;;;;;11.30;6.70;;;;;;;8.14;94.91;99790.33;102526;1313;138011;-72
2022/10/07 04:16:39;;;;;;;8.10;6.30;;;;;;;8.13;95.06;99788.27;102764;1314;22599;-73
2022/10/07 04:19:07;;;;;;;10.60;7.00;;;;;;;8.12;95.04;99788.48;102857;1305;137517;-71
2022/10/07 04:21:34;;;;;;;9.70;6.30;;;;;;;8.11;94.90;99786.13;102736;1313;22558;-72
2022/10/07 04:24:01;;;;;;;11.00;6.20;;;;;;;8.10;94.91;99781.02;102669;1291;138673;-73
2022/10/07 04:26:28;;;;;;;9.60;6.70;;;;;;;8.09;94.95;99777.69;102575;1299;22548;-73
2022/10/07 04:28:54;;;;;;;11.70;6.60;;;;;;;8.09;94.97;99776.67;102390;1315;22487;-72
2022/10/07 04:31:22;;;;;;;11.70;7.50;;;;;;;8.08;94.95;99773.34;102402;1291;137508;-72
2022/10/07 04:33:57;;;;;;;11.70;6.60;;;;;;;8.06;95.25;99773.73;102618;1314;22567;-73
2022/10/07 04:36:27;;;;;;;10.50;6.70;;;;;;;8.05;95.11;99775.27;102618;1313;137924;-72
2022/10/07 04:39:07;;;;;;;13.70;7.20;;;;;;;8.03;95.19;99771.74;102855;1294;22589;-72
2022/10/07 04:41:36;;;;;;;11.40;7.20;;;;;;;8.02;94.99;99772.83;102632;1290;25548;-73
2022/10/07 04:44:04;;;;;;;8.90;6.70;;;;;;;8.01;95.05;99770.57;102676;1291;137443;-72
2022/10/07 04:46:35;;;;;;;9.30;7.10;;;;;;;8.00;95.01;99773.40;102498;1289;22519;-72
2022/10/07 04:49:09;;;;;;;14.00;7.70;;;;;;;7.99;95.15;99773.35;102505;1314;137490;-72
2022/10/07 04:51:36;;;;;;;14.00;7.80;;;;;;;7.97;94.75;99773.01;102764;1301;24860;-72
2022/10/07 04:54:07;;;;;;;14.80;8.00;;;;;;;7.95;95.02;99766.67;102515;1314;137792;-73
2022/10/07 04:56:54;;;;;;;13.30;8.90;;;;;;;7.92;94.98;99769.20;102807;1301;22474;-73
2022/10/07 04:59:23;;;;;;;;;;;;;;;7.90;94.92;99772.19;102929;1293;25414;-72
2022/10/07 05:01:50;;;;;;;9.80;7.40;;;;;;;7.88;95.10;99771.90;102812;1291;124113;-72
2022/10/07 05:04:17;;;;;;;15.30;7.80;;;;;;;7.87;95.26;99773.95;102877;1308;22654;-71
2022/10/07 05:06:44;;;;;;;9.50;7.30;;;;;;;7.86;95.12;99769.23;102952;1300;137573;-73
2022/10/07 05:09:12;;;;;;;12.90;7.90;;;;;;;7.85;94.85;99769.52;103148;1294;22486;-73
2022/10/07 05:11:42;;;;;;;12.90;7.40;;;;;;;7.84;95.29;99767.41;103155;1300;25425;-72
2022/10/07 05:14:20;;;;;;;11.70;7.30;;;;;;;7.82;95.48;99762.52;103064;1313;24469;-73
2022/10/07 05:16:48;;;;;;;13.10;7.20;;;;;;;7.83;95.89;99767.16;103248;1301;22681;-73
2022/10/07 05:19:16;;;;;;;13.40;7.20;;;;;;;7.84;96.27;99768.45;102881;1313;137652;-72
2022/10/07 05:21:43;;;;;;;13.60;7.90;;;;;;;7.85;96.35;99766.55;102790;1290;22510;-73
2022/10/07 05:24:10;;;;;;;11.10;7.80;;;;;;;7.86;96.43;99765.52;102661;1314;137850;-72
2022/10/07 05:26:38;;;;;;;13.90;7.20;;;;;;;7.88;96.41;99762.89;102757;1314;22493;-73
2022/10/07 05:29:09;;;;;;;15.00;8.70;;;;;;;7.90;96.61;99754.58;102769;1292;24857;-73
2022/10/07 05:31:45;;;;;;;11.20;8.20;;;;;;;7.94;96.91;99757.84;103311;1293;137588;-72
2022/10/07 05:34:13;;;;;;;14.10;8.70;;;;;;;8.01;97.27;99758.34;102845;1297;22533;-72
2022/10/07 05:36:41;;;;;;;11.80;7.50;;;;;;;8.06;97.37;99756.41;102324;1302;137913;-72
2022/10/07 05:39:09;;;;;;;12.10;7.30;;;;;;;8.10;97.30;99758.71;102674;1291;25836;-73
2022/10/07 05:41:42;;;;;;;13.50;7.70;;;;;;;8.14;97.07;99754.69;102730;1313;24393;-73
2022/10/07 05:44:10;;;;;;;13.60;7.80;;;;;;;8.16;97.17;99754.38;102651;1291;137482;-72
2022/10/07 05:46:37;;;;;;;14.60;8.20;;;;;;;8.20;97.24;99758.47;102851;1315;24709;-73
2022/10/07 05:49:04;;;;;;;13.40;8.00;;;;;;;8.22;97.55;99758.29;102892;1298;137747;-73
2022/10/07 05:51:36;;;;;;;23.60;9.30;;;;;;;8.26;97.66;99757.52;102840;1290;25366;-73
2022/10/07 05:54:03;;;;;;;11.30;8.10;;;;;;;8.31;97.60;99761.56;102721;1297;137927;-73
2022/10/07 05:56:37;;;;;;;14.10;7.90;;;;;;;8.35;97.69;99760.80;102682;1314;24531;-73
2022/10/07 05:59:04;;;;;;;13.30;9.00;;;;;;;8.40;97.86;99763.64;102873;1314;22625;-72
2022/10/07 06:01:36;;;;;;;13.70;8.20;;;;;;;8.45;97.81;99766.55;102774;1313;137829;-72
2022/10/07 06:04:08;;;;;;;13.20;7.90;;;;;;;8.51;97.80;99769.64;102702;1300;24090;-72
2022/10/07 06:06:37;;;;;;;13.40;7.70;;;;;;;8.56;97.75;99766.66;103094;1298;137869;-76
2022/10/07 06:14:38;;;;;;;25.30;13.70;;;;;;;9.03;98.51;99769.91;102927;1312;22501;-73
2022/10/07 06:17:06;;;;;;;20.30;11.10;;;;;;;9.08;97.45;99763.85;106125;1312;22319;-73
2022/10/07 06:19:36;;;;;;;16.00;8.90;;;;;;;9.12;96.91;99768.39;103526;1308;138129;-73
2022/10/07 06:22:03;;;;;;;14.90;7.00;;;;;;;9.15;96.86;99761.59;105325;1314;22858;-74
2022/10/07 06:24:32;;;;;;;13.30;7.70;;;;;;;9.20;96.79;99764.03;106142;1315;138194;-74
2022/10/07 06:26:59;;;;;;;11.80;7.10;;;;;;;9.25;96.83;99761.58;104333;1315;22498;-74
2022/10/07 06:29:27;;;;;;;12.10;7.40;;;;;;;9.31;97.02;99762.45;102745;1312;25398;-74
2022/10/07 06:31:55;;;;;;;13.10;7.60;;;;;;;9.37;97.19;99763.45;102721;1288;137684;-74
2022/10/07 06:34:21;;;;;;;14.10;7.90;;;;;;;9.43;97.05;99764.55;102662;1292;22494;-77
2022/10/07 06:36:48;;;;;;;9.30;6.50;;;;;;;9.50;97.03;99761.35;102675;1312;138286;-76
2022/10/07 06:39:16;;;;;;;9.40;7.20;;;;;;;9.56;97.07;99761.74;102680;1304;22484;-72
2022/10/07 06:41:44;;;;;;;11.80;7.40;;;;;;;9.63;97.29;99757.08;102522;1314;24274;-73
2022/10/07 06:44:30;;;;;;;15.40;7.50;;;;;;;9.72;97.36;99755.62;102774;1313;25585;-78
2022/10/07 06:46:57;;;;;;;11.50;7.60;;;;;;;9.79;97.36;99754.90;102819;1312;25421;-76
2022/10/07 06:49:24;;;;;;;9.60;7.20;;;;;;;9.85;97.29;99756.39;102740;1312;137897;-74
2022/10/07 06:51:52;;;;;;;12.60;7.50;;;;;;;9.92;97.07;99754.04;102969;1312;25458;-73
2022/10/07 06:54:20;;;;;;;15.00;8.50;;;;;;;9.99;97.31;99746.05;102695;1313;137974;-75
2022/10/07 06:56:47;;;;;;;10.90;8.70;;;;;;;10.07;97.48;99743.88;102827;1312;24395;-75
2022/10/07 06:59:15;;;;;;;14.70;8.40;;;;;;;10.14;97.11;99746.67;102958;1294;25741;-76
2022/10/07 07:01:54;;;;;;;13.00;7.70;;;;;;;10.21;97.44;99747.67;102708;1311;138208;-75
2022/10/07 07:04:21;;;;;;;14.10;7.50;;;;;;;10.29;97.02;99748.26;102827;1313;22484;-73
2022/10/07 07:06:49;;;;;;;9.70;7.50;;;;;;;10.37;96.94;99747.98;102810;1313;137965;-76
2022/10/07 07:09:16;;;;;;;13.10;8.30;;;;;;;10.44;96.57;99748.05;102646;1301;22932;-77
2022/10/07 07:11:45;;;;;;;13.40;7.80;;;;;;;10.51;96.54;99738.73;102874;1312;22471;-74
2022/10/07 07:14:19;;;;;;;13.40;7.00;;;;;;;10.59;96.37;99738.96;102840;1312;137803;-75
2022/10/07 07:16:52;;;;;;;12.90;7.60;;;;;;;10.67;96.34;99737.31;103009;1311;22483;-73
2022/10/07 07:19:19;;;;;;;12.60;8.10;;;;;;;10.73;96.06;99736.58;102886;1298;138201;-73
2022/10/07 07:21:46;;;;;;;12.20;7.70;;;;;;;10.81;95.97;99737.35;102657;1313;22481;-73
2022/10/07 07:24:16;;;;;;;14.80;9.50;;;;;;;10.89;95.85;99738.46;102681;1313;138482;-73
2022/10/07 07:26:45;;;;;;;12.30;8.20;;;;;;;10.97;95.53;99735.86;102835;1314;24318;-73
2022/10/07 07:29:13;;;;;;;12.30;8.20;;;;;;;11.04;95.83;99735.91;103547;1309;22325;-73
2022/10/07 07:32:01;;;;;;;11.50;8.20;;;;;;;11.12;95.66;99733.33;103912;1313;138374;-78
2022/10/07 07:34:35;;;;;;;13.50;8.80;;;;;;;11.20;95.22;99725.81;102884;1312;22483;-74
2022/10/07 07:37:03;;;;;;;13.40;8.90;;;;;;;11.29;95.23;99724.09;102726;1312;137933;-77
2022/10/07 07:39:35;;;;;;;12.20;8.10;;;;;;;11.37;95.41;99725.38;102936;1307;24251;-73
2022/10/07 07:42:08;;;;;;;15.30;8.50;;;;;;;11.47;95.41;99721.13;103135;1313;138049;-72
2022/10/07 07:44:37;;;;;;;12.70;8.70;;;;;;;11.56;94.77;99720.02;102964;1287;25513;-73
2022/10/07 07:47:08;;;;;;;11.90;8.50;;;;;;;11.65;94.76;99716.94;102858;1307;22470;-73
2022/10/07 07:49:36;;;;;;;12.10;9.00;;;;;;;11.73;94.38;99716.08;102911;1298;138591;-73
2022/10/07 07:52:04;;;;;;;11.70;9.10;;;;;;;11.81;94.09;99714.09;102946;1300;22552;-73
2022/10/07 07:54:36;;;;;;;12.10;8.60;;;;;;;11.89;93.78;99715.80;102570;1302;138950;-73
2022/10/07 07:57:04;;;;;;;;;;;;;;;11.98;93.84;99716.75;102980;1305;24450;-73
2022/10/07 07:59:32;;;;;;;15.00;8.90;;;;;;;12.05;93.74;99714.97;102911;1296;25421;-73
2022/10/07 08:01:59;;;;;;;14.10;8.20;;;;;;;12.14;93.95;99712.73;102545;1313;138144;-73
2022/10/07 08:04:26;;;;;;;12.10;9.10;;;;;;;12.24;93.62;99713.66;102670;1291;23297;-73
2022/10/07 08:06:54;;;;;;;14.40;8.70;;;;;;;12.33;93.19;99711.04;102683;1313;138254;-73
2022/10/07 08:09:23;;;;;;;13.20;9.50;;;;;;;12.43;92.93;99708.23;102997;1313;24054;-73
2022/10/07 08:11:50;;;;;;;15.70;9.50;;;;;;;12.51;92.64;99697.54;103149;1301;22490;-74
2022/10/07 08:14:21;;;;;;;15.20;9.50;;;;;;;12.60;92.42;99697.02;102459;1313;138030;-73
2022/10/07 08:16:50;;;;;;;12.80;9.70;;;;;;;12.69;92.12;99701.24;102593;1306;24283;-73
2022/10/07 08:19:18;;;;;;;16.40;9.90;;;;;;;12.77;91.71;99696.14;102450;1290;138469;-72
2022/10/07 08:21:47;;;;;;;16.50;10.60;;;;;;;12.86;91.20;99691.08;102943;1313;22859;-74
2022/10/07 08:24:18;;;;;;;13.10;9.80;;;;;;;12.94;90.79;99693.28;102767;1302;138754;-73
2022/10/07 08:26:46;;;;;;;18.20;10.10;;;;;;;13.02;90.87;99691.27;102769;1313;22489;-74
2022/10/07 08:29:14;;;;;;;18.00;10.40;;;;;;;13.12;90.61;99685.86;102876;1313;22474;-73
2022/10/07 08:31:41;;;;;;;15.20;9.30;;;;;;;13.22;90.29;99689.08;102677;1313;138325;-73
2022/10/07 08:34:10;;;;;;;20.80;10.70;;;;;;;13.31;89.89;99687.74;102833;1290;22475;-73
2022/10/07 08:36:38;;;;;;;18.00;10.10;;;;;;;13.39;89.63;99678.61;102701;1313;138245;-74
2022/10/07 08:39:06;;;;;;;18.50;10.50;;;;;;;13.48;89.37;99678.51;102689;1297;22489;-73
2022/10/07 08:41:41;;;;;;;12.90;9.80;;;;;;;13.57;89.19;99676.77;102856;1312;24459;-73
2022/10/07 08:44:12;;;;;;;16.00;10.40;;;;;;;13.68;88.59;99677.42;102827;1306;137668;-74
2022/10/07 08:46:45;;;;;;;13.90;10.40;;;;;;;13.77;88.26;99667.64;102696;1305;24389;-74
2022/10/07 08:49:18;;;;;;;14.30;10.20;;;;;;;13.86;87.55;99667.95;102644;1313;138110;-74
2022/10/07 08:51:49;;;;;;;13.70;9.90;;;;;;;13.96;87.35;99664.80;102867;1312;25378;-75
2022/10/07 08:54:24;;;;;;;15.40;10.20;;;;;;;14.05;87.51;99660.42;102844;1313;138056;-74
2022/10/07 08:56:54;;;;;;;17.50;9.80;;;;;;;14.16;87.16;99663.74;102975;1288;24223;-73
2022/10/07 08:59:31;;;;;;;17.30;9.60;;;;;;;14.28;86.56;99659.25;102939;1313;22612;-74
2022/10/07 09:02:26;;;;;;;13.50;10.80;;;;;;;14.39;86.06;99656.42;102782;1305;137950;-73
2022/10/07 09:05:14;;;;;;;15.70;10.00;;;;;;;14.50;85.73;99648.36;102717;1313;24342;-74
2022/10/07 09:07:55;;;;;;;22.00;10.50;;;;;;;14.61;85.47;99649.63;102644;1313;138012;-74
2022/10/07 09:10:52;;;;;;;14.50;10.90;;;;;;;14.72;85.28;99645.02;102693;1313;25492;-73
2022/10/07 09:13:23;;;;;;;13.30;10.50;;;;;;;14.86;84.72;99642.92;102904;1305;138000;-74
2022/10/07 09:16:07;;;;;;;13.20;10.40;;;;;;;14.95;84.30;99642.85;102937;1307;23115;-74
2022/10/07 09:19:03;;;;;;;15.10;10.40;;;;;;;15.05;84.12;99641.88;102991;1312;138234;-74
2022/10/07 09:21:48;;;;;;;18.60;10.50;;;;;;;15.15;83.86;99634.35;103097;1287;22547;-74
2022/10/07 09:24:27;;;;;;;14.90;10.90;;;;;;;15.26;82.83;99629.93;102706;1313;138155;-73
2022/10/07 09:26:57;;;;;;;15.60;10.60;;;;;;;15.34;82.85;99631.16;102698;1314;24356;-75
2022/10/07 09:29:29;;;;;;;18.10;9.90;;;;;;;15.42;82.12;99625.81;102574;1283;22886;-74
2022/10/07 09:32:01;;;;;;;17.00;10.90;;;;;;;15.52;82.20;99622.96;102649;1307;138356;-74
2022/10/07 09:34:30;;;;;;;17.60;11.80;;;;;;;15.63;81.80;99620.08;102758;1312;24343;-75
2022/10/07 09:37:10;;;;;;;14.40;9.80;;;;;;;15.73;81.18;99619.20;102692;1300;138094;-74
2022/10/07 09:39:43;;;;;;;17.10;10.30;;;;;;;15.84;81.32;99615.38;102821;1312;24051;-74
2022/10/07 09:42:27;;;;;;;19.90;10.40;;;;;;;15.97;81.11;99618.48;102855;1313;138769;-76
2022/10/07 09:45:04;;;;;;;16.30;10.30;;;;;;;16.06;80.33;99609.38;102859;1310;22569;-73
2022/10/07 09:47:39;;;;;;;14.10;10.10;;;;;;;16.17;79.92;99609.10;102816;1305;22527;-73
2022/10/07 09:50:32;;;;;;;14.80;9.40;;;;;;;16.26;79.60;99608.40;102677;1312;138135;-73
2022/10/07 09:53:01;;;;;;;16.60;9.80;;;;;;;16.36;78.73;99607.70;102824;1305;23379;-73
2022/10/07 09:55:39;;;;;;;16.30;10.00;;;;;;;16.41;78.06;99606.18;102565;1313;137881;-74
2022/10/07 09:58:26;;;;;;;13.60;9.30;;;;;;;16.47;77.82;99604.55;102569;1313;24323;-74
2022/10/07 10:00:56;;;;;;;12.70;9.80;;;;;;;16.56;77.66;99601.14;102520;1291;137887;-74
2022/10/07 10:03:36;;;;;;;14.60;9.40;;;;;;;16.64;77.56;99599.98;102674;1300;22494;-73
2022/10/07 10:06:06;;;;;;;15.90;9.90;;;;;;;16.74;77.42;99593.83;102762;1312;138144;-74
2022/10/07 10:08:35;;;;;;;13.00;9.30;;;;;;;16.83;77.24;99591.41;102808;1312;23056;-75
2022/10/07 10:11:16;;;;;;;12.80;8.80;;;;;;;16.94;77.27;99592.69;102831;1313;23389;-76
2022/10/07 10:13:50;;;;;;;12.30;10.00;;;;;;;17.06;77.24;99585.93;102689;1306;137891;-75
2022/10/07 10:16:23;;;;;;;17.00;9.90;;;;;;;17.13;76.00;99579.23;102651;1313;22638;-75
2022/10/07 10:19:05;;;;;;;15.00;9.50;;;;;;;17.22;76.40;99575.96;102567;1303;137956;-76
2022/10/07 10:21:43;;;;;;;12.10;9.50;;;;;;;17.33;76.17;99571.59;102627;1313;24538;-75
2022/10/07 10:24:14;;;;;;;15.70;10.10;;;;;;;17.44;75.67;99568.16;102572;1311;138435;-74
2022/10/07 10:27:08;;;;;;;13.30;8.70;;;;;;;17.55;75.41;99562.24;102810;1298;22612;-76
2022/10/07 10:30:01;;;;;;;19.40;9.70;;;;;;;17.68;75.31;99551.86;102779;1287;22526;-75
2022/10/07 10:33:00;;;;;;;11.30;9.30;;;;;;;17.79;74.88;99551.39;102873;1312;22631;-74
2022/10/07 10:35:31;;;;;;;16.00;8.60;;;;;;;17.90;74.25;99545.48;102762;1312;23094;-75
2022/10/07 10:38:28;;;;;;;11.90;8.60;;;;;;;17.98;74.09;99543.27;102522;1306;137910;-76
2022/10/07 10:41:22;;;;;;;18.40;8.70;;;;;;;18.08;74.09;99536.04;103516;1311;25416;-72
2022/10/07 10:44:26;;;;;;;12.20;8.20;;;;;;;18.16;73.48;99530.29;101619;1297;138013;-74
2022/10/07 10:47:03;;;;;;;18.00;9.20;;;;;;;18.26;73.17;99528.13;102336;1303;22742;-73
2022/10/07 10:49:36;;;;;;;11.60;9.10;;;;;;;18.34;72.99;99525.52;102007;1321;138072;-73
2022/10/07 10:52:24;;;;;;;15.70;8.60;;;;;;;18.40;72.40;99517.48;102121;1304;24426;-74
2022/10/07 10:55:10;;;;;;;15.30;8.50;;;;;;;18.47;72.40;99512.98;103011;1297;137991;-74
2022/10/07 10:57:58;;;;;;;16.20;8.90;;;;;;;18.55;72.46;99504.41;102285;1318;24276;-73
2022/10/07 11:00:51;;;;;;;16.60;9.30;;;;;;;18.61;71.84;99506.34;102115;1318;138059;-75
2022/10/07 11:03:36;;;;;;;12.80;8.70;;;;;;;18.71;71.62;99502.11;101567;1316;22706;-77
2022/10/07 11:06:08;;;;;;;15.20;8.40;;;;;;;18.80;71.38;99498.89;101456;1324;138249;-73
2022/10/07 11:08:36;;;;;;;12.70;9.10;;;;;;;18.88;70.69;99491.64;101463;1325;22491;-74
2022/10/07 11:11:13;;;;;;;14.20;8.50;;;;;;;18.93;70.32;99489.38;101525;1325;23890;-78
2022/10/07 11:14:13;;;;;;;13.50;8.90;;;;;;;18.98;70.21;99485.29;101451;1325;138040;-74
2022/10/07 11:16:48;;;;;;;15.50;8.70;;;;;;;19.05;69.81;99479.11;101126;1310;24196;-75
2022/10/07 11:19:25;;;;;;;14.30;8.90;;;;;;;19.12;69.68;99472.92;100994;1328;137881;-74
2022/10/07 11:21:55;;;;;;;11.00;7.80;;;;;;;19.19;69.69;99466.79;101356;1302;25409;-74
2022/10/07 11:24:31;;;;;;;15.00;8.50;;;;;;;19.28;69.81;99459.10;101356;1324;138680;-74
2022/10/07 11:27:10;;;;;;;13.70;8.80;;;;;;;19.37;68.90;99456.11;101684;1312;22494;-75
2022/10/07 11:29:50;;;;;;;9.90;6.80;;;;;;;19.43;68.57;99449.75;101524;1309;25741;-74
2022/10/07 11:32:43;;;;;;;14.70;8.40;;;;;;;19.51;68.57;99440.94;101510;1323;137581;-76
2022/10/07 11:35:24;;;;;;;12.40;7.30;;;;;;;19.62;68.49;99437.76;101562;1314;22494;-74
2022/10/07 11:37:58;;;;;;;8.70;6.70;;;;;;;19.72;68.08;99432.98;101824;1306;137894;-74
2022/10/07 11:40:29;;;;;;;16.40;7.20;;;;;;;19.82;67.63;99430.39;101728;1319;22501;-74
2022/10/07 11:43:06;;;;;;;13.30;7.80;;;;;;;19.92;66.72;99426.35;102176;1290;137960;-74
2022/10/07 11:45:41;;;;;;;14.90;8.30;;;;;;;19.98;66.42;99421.73;102212;1310;22549;-74
2022/10/07 11:48:20;;;;;;;12.00;7.00;;;;;;;20.02;65.93;99421.05;102246;1317;139570;-73
2022/10/07 11:51:01;;;;;;;12.20;7.10;;;;;;;20.04;65.56;99417.40;102262;1319;24478;-74
2022/10/07 11:53:31;;;;;;;;;;;;;;;20.11;65.58;99412.05;102615;1298;22533;-74